sensor_id;sensor_type;location;lat;lon;timestamp;P1;durP1;ratioP1;P2;durP2;ratioP2
15614;SDS011;7907;51.368;6.730;2022-08-20T00:10:48;10.05;;;4.90;;
15614;SDS011;7907;51.368;6.730;2022-08-20T00:13:22;6.13;;;3.40;;
15614;SDS011;7907;51.368;6.730;2022-08-20T00:15:51;5.43;;;3.40;;
15614;SDS011;7907;51.368;6.730;2022-08-20T00:18:18;5.25;;;2.85;;
15614;SDS011;7907;51.368;6.730;2022-08-20T00:20:47;5.60;;;3.35;;
15614;SDS011;7907;51.368;6.730;2022-08-20T00:26:57;8.57;;;4.10;;
15614;SDS011;7907;51.368;6.730;2022-08-20T00:29:37;7.05;;;3.03;;
15614;SDS011;7907;51.368;6.730;2022-08-20T00:32:08;4.88;;;3.03;;
15614;SDS011;7907;51.368;6.730;2022-08-20T01:01:38;5.22;;;3.92;;
15614;SDS011;7907;51.368;6.730;2022-08-20T01:04:24;4.75;;;4.05;;
15614;SDS011;7907;51.368;6.730;2022-08-20T01:06:58;4.80;;;3.27;;
15614;SDS011;7907;51.368;6.730;2022-08-20T01:09:25;4.75;;;3.47;;
15614;SDS011;7907;51.368;6.730;2022-08-20T01:12:01;5.30;;;3.63;;
15614;SDS011;7907;51.368;6.730;2022-08-20T01:14:34;5.25;;;3.90;;
15614;SDS011;7907;51.368;6.730;2022-08-20T01:17:18;6.75;;;4.28;;
15614;SDS011;7907;51.368;6.730;2022-08-20T01:20:03;6.82;;;3.40;;
15614;SDS011;7907;51.368;6.730;2022-08-20T01:25:16;4.70;;;3.60;;
15614;SDS011;7907;51.368;6.730;2022-08-20T01:28:12;5.18;;;3.65;;
15614;SDS011;7907;51.368;6.730;2022-08-20T01:30:49;7.03;;;3.77;;
15614;SDS011;7907;51.368;6.730;2022-08-20T01:36:56;6.18;;;4.13;;
15614;SDS011;7907;51.368;6.730;2022-08-20T01:39:31;8.20;;;4.13;;
15614;SDS011;7907;51.368;6.730;2022-08-20T01:42:03;5.47;;;3.55;;
15614;SDS011;7907;51.368;6.730;2022-08-20T01:44:36;7.20;;;4.03;;
15614;SDS011;7907;51.368;6.730;2022-08-20T01:47:12;5.60;;;4.00;;
15614;SDS011;7907;51.368;6.730;2022-08-20T01:53:11;4.85;;;3.08;;
15614;SDS011;7907;51.368;6.730;2022-08-20T01:55:48;5.80;;;3.75;;
15614;SDS011;7907;51.368;6.730;2022-08-20T01:58:24;6.75;;;4.20;;
15614;SDS011;7907;51.368;6.730;2022-08-20T02:04:02;6.28;;;3.92;;
15614;SDS011;7907;51.368;6.730;2022-08-20T02:06:58;4.63;;;3.38;;
15614;SDS011;7907;51.368;6.730;2022-08-20T02:09:57;6.63;;;3.38;;
15614;SDS011;7907;51.368;6.730;2022-08-20T02:12:35;5.72;;;4.10;;
15614;SDS011;7907;51.368;6.730;2022-08-20T02:15:07;6.80;;;4.07;;
15614;SDS011;7907;51.368;6.730;2022-08-20T02:17:43;4.78;;;3.25;;
15614;SDS011;7907;51.368;6.730;2022-08-20T02:20:28;4.47;;;3.40;;
15614;SDS011;7907;51.368;6.730;2022-08-20T02:23:48;6.53;;;4.00;;
15614;SDS011;7907;51.368;6.730;2022-08-20T02:30:22;4.22;;;3.33;;
15614;SDS011;7907;51.368;6.730;2022-08-20T02:33:19;5.30;;;3.90;;
15614;SDS011;7907;51.368;6.730;2022-08-20T02:36:22;8.85;;;4.10;;
15614;SDS011;7907;51.368;6.730;2022-08-20T02:38:57;3.47;;;2.88;;
15614;SDS011;7907;51.368;6.730;2022-08-20T02:41:39;5.47;;;3.38;;
15614;SDS011;7907;51.368;6.730;2022-08-20T02:45:44;5.22;;;3.30;;
15614;SDS011;7907;51.368;6.730;2022-08-20T02:47:30;3.75;;;2.85;;
15614;SDS011;7907;51.368;6.730;2022-08-20T02:53:25;5.77;;;2.73;;
15614;SDS011;7907;51.368;6.730;2022-08-20T02:56:05;4.90;;;3.03;;
15614;SDS011;7907;51.368;6.730;2022-08-20T02:58:36;4.47;;;2.97;;
15614;SDS011;7907;51.368;6.730;2022-08-20T03:01:05;5.35;;;3.00;;
15614;SDS011;7907;51.368;6.730;2022-08-20T03:03:37;4.13;;;3.15;;
15614;SDS011;7907;51.368;6.730;2022-08-20T03:06:14;3.45;;;2.58;;
15614;SDS011;7907;51.368;6.730;2022-08-20T03:08:48;4.70;;;2.90;;
15614;SDS011;7907;51.368;6.730;2022-08-20T03:11:23;3.40;;;2.53;;
15614;SDS011;7907;51.368;6.730;2022-08-20T03:14:03;4.88;;;2.83;;
15614;SDS011;7907;51.368;6.730;2022-08-20T03:16:44;3.28;;;2.53;;
15614;SDS011;7907;51.368;6.730;2022-08-20T03:19:19;5.10;;;2.83;;
15614;SDS011;7907;51.368;6.730;2022-08-20T03:21:57;3.88;;;2.88;;
15614;SDS011;7907;51.368;6.730;2022-08-20T03:24:39;3.92;;;3.15;;
15614;SDS011;7907;51.368;6.730;2022-08-20T03:27:38;6.32;;;3.30;;
15614;SDS011;7907;51.368;6.730;2022-08-20T03:30:27;4.25;;;2.60;;
15614;SDS011;7907;51.368;6.730;2022-08-20T03:37:17;4.75;;;2.97;;
15614;SDS011;7907;51.368;6.730;2022-08-20T03:40:14;5.83;;;3.97;;
15614;SDS011;7907;51.368;6.730;2022-08-20T03:42:50;6.32;;;3.50;;
15614;SDS011;7907;51.368;6.730;2022-08-20T03:59:30;4.43;;;3.50;;
15614;SDS011;7907;51.368;6.730;2022-08-20T04:30:18;4.15;;;3.10;;
15614;SDS011;7907;51.368;6.730;2022-08-20T04:33:53;5.18;;;3.47;;
15614;SDS011;7907;51.368;6.730;2022-08-20T04:56:43;6.35;;;3.88;;
15614;SDS011;7907;51.368;6.730;2022-08-20T04:59:17;6.38;;;3.95;;
15614;SDS011;7907;51.368;6.730;2022-08-20T05:12:08;5.45;;;4.03;;
15614;SDS011;7907;51.368;6.730;2022-08-20T05:14:36;9.35;;;4.07;;
15614;SDS011;7907;51.368;6.730;2022-08-20T05:17:04;6.20;;;3.83;;
15614;SDS011;7907;51.368;6.730;2022-08-20T05:19:32;6.93;;;4.43;;
15614;SDS011;7907;51.368;6.730;2022-08-20T05:22:23;4.68;;;3.30;;
15614;SDS011;7907;51.368;6.730;2022-08-20T05:24:52;4.82;;;3.58;;
15614;SDS011;7907;51.368;6.730;2022-08-20T05:27:27;4.22;;;2.90;;
15614;SDS011;7907;51.368;6.730;2022-08-20T05:29:58;5.63;;;3.25;;
15614;SDS011;7907;51.368;6.730;2022-08-20T05:32:26;5.22;;;3.70;;
15614;SDS011;7907;51.368;6.730;2022-08-20T05:35:06;6.73;;;3.83;;
15614;SDS011;7907;51.368;6.730;2022-08-20T05:40:31;6.60;;;3.53;;
15614;SDS011;7907;51.368;6.730;2022-08-20T05:56:48;4.93;;;2.85;;
15614;SDS011;7907;51.368;6.730;2022-08-20T06:14:55;6.75;;;4.40;;
15614;SDS011;7907;51.368;6.730;2022-08-20T06:17:22;5.97;;;4.53;;
15614;SDS011;7907;51.368;6.730;2022-08-20T06:19:52;9.53;;;4.47;;
15614;SDS011;7907;51.368;6.730;2022-08-20T06:22:25;8.73;;;4.60;;
15614;SDS011;7907;51.368;6.730;2022-08-20T06:24:55;7.15;;;4.85;;
15614;SDS011;7907;51.368;6.730;2022-08-20T06:27:37;7.47;;;5.10;;
15614;SDS011;7907;51.368;6.730;2022-08-20T06:30:11;7.05;;;4.88;;
15614;SDS011;7907;51.368;6.730;2022-08-20T06:35:20;7.65;;;4.80;;
15614;SDS011;7907;51.368;6.730;2022-08-20T06:37:53;7.63;;;4.65;;
15614;SDS011;7907;51.368;6.730;2022-08-20T06:40:27;8.73;;;5.60;;
15614;SDS011;7907;51.368;6.730;2022-08-20T06:46:28;13.05;;;4.78;;
15614;SDS011;7907;51.368;6.730;2022-08-20T06:49:41;7.60;;;5.25;;
15614;SDS011;7907;51.368;6.730;2022-08-20T06:52:28;7.10;;;4.30;;
15614;SDS011;7907;51.368;6.730;2022-08-20T06:55:07;14.53;;;3.47;;
15614;SDS011;7907;51.368;6.730;2022-08-20T07:12:48;13.75;;;6.63;;
15614;SDS011;7907;51.368;6.730;2022-08-20T07:15:26;12.13;;;7.22;;
15614;SDS011;7907;51.368;6.730;2022-08-20T07:20:59;16.08;;;7.90;;
15614;SDS011;7907;51.368;6.730;2022-08-20T07:23:36;16.88;;;8.15;;
15614;SDS011;7907;51.368;6.730;2022-08-20T07:26:12;12.13;;;7.20;;
15614;SDS011;7907;51.368;6.730;2022-08-20T07:28:56;14.25;;;7.38;;
15614;SDS011;7907;51.368;6.730;2022-08-20T07:31:23;12.27;;;7.43;;
15614;SDS011;7907;51.368;6.730;2022-08-20T07:34:08;7.95;;;5.43;;
15614;SDS011;7907;51.368;6.730;2022-08-20T07:36:40;13.90;;;7.72;;
15614;SDS011;7907;51.368;6.730;2022-08-20T07:39:18;11.65;;;7.15;;
15614;SDS011;7907;51.368;6.730;2022-08-20T07:42:03;12.60;;;6.57;;
15614;SDS011;7907;51.368;6.730;2022-08-20T07:44:38;19.45;;;7.30;;
15614;SDS011;7907;51.368;6.730;2022-08-20T07:47:08;13.30;;;7.60;;
15614;SDS011;7907;51.368;6.730;2022-08-20T07:49:44;15.32;;;7.43;;
15614;SDS011;7907;51.368;6.730;2022-08-20T07:54:55;11.87;;;6.60;;
15614;SDS011;7907;51.368;6.730;2022-08-20T07:57:31;7.57;;;5.15;;
15614;SDS011;7907;51.368;6.730;2022-08-20T08:00:06;9.95;;;5.85;;
15614;SDS011;7907;51.368;6.730;2022-08-20T08:02:43;10.15;;;5.45;;
15614;SDS011;7907;51.368;6.730;2022-08-20T08:05:21;10.98;;;7.65;;
15614;SDS011;7907;51.368;6.730;2022-08-20T08:07:48;9.25;;;6.07;;
15614;SDS011;7907;51.368;6.730;2022-08-20T08:10:21;7.60;;;4.80;;
15614;SDS011;7907;51.368;6.730;2022-08-20T08:12:49;7.50;;;4.50;;
15614;SDS011;7907;51.368;6.730;2022-08-20T08:15:43;8.68;;;5.13;;
15614;SDS011;7907;51.368;6.730;2022-08-20T08:18:28;8.50;;;5.43;;
15614;SDS011;7907;51.368;6.730;2022-08-20T08:21:00;8.20;;;4.95;;
15614;SDS011;7907;51.368;6.730;2022-08-20T08:23:43;9.43;;;4.45;;
15614;SDS011;7907;51.368;6.730;2022-08-20T08:26:15;13.90;;;6.70;;
15614;SDS011;7907;51.368;6.730;2022-08-20T08:28:43;9.18;;;5.70;;
15614;SDS011;7907;51.368;6.730;2022-08-20T08:31:12;9.57;;;5.10;;
15614;SDS011;7907;51.368;6.730;2022-08-20T08:33:40;10.57;;;5.83;;
15614;SDS011;7907;51.368;6.730;2022-08-20T08:36:11;9.00;;;5.50;;
15614;SDS011;7907;51.368;6.730;2022-08-20T08:38:40;5.90;;;3.73;;
15614;SDS011;7907;51.368;6.730;2022-08-20T08:41:14;7.00;;;4.40;;
15614;SDS011;7907;51.368;6.730;2022-08-20T08:43:44;10.68;;;5.70;;
15614;SDS011;7907;51.368;6.730;2022-08-20T08:46:22;11.50;;;4.40;;
15614;SDS011;7907;51.368;6.730;2022-08-20T08:49:01;7.05;;;4.45;;
15614;SDS011;7907;51.368;6.730;2022-08-20T08:51:31;6.90;;;4.38;;
15614;SDS011;7907;51.368;6.730;2022-08-20T08:54:04;7.97;;;4.88;;
15614;SDS011;7907;51.368;6.730;2022-08-20T08:56:33;7.93;;;3.73;;
15614;SDS011;7907;51.368;6.730;2022-08-20T08:59:03;4.60;;;2.80;;
15614;SDS011;7907;51.368;6.730;2022-08-20T09:01:39;4.07;;;3.15;;
15614;SDS011;7907;51.368;6.730;2022-08-20T09:04:09;7.53;;;4.38;;
15614;SDS011;7907;51.368;6.730;2022-08-20T09:06:37;6.85;;;4.47;;
15614;SDS011;7907;51.368;6.730;2022-08-20T09:09:10;6.28;;;3.42;;
15614;SDS011;7907;51.368;6.730;2022-08-20T09:11:45;6.80;;;4.70;;
15614;SDS011;7907;51.368;6.730;2022-08-20T09:14:13;7.47;;;3.83;;
15614;SDS011;7907;51.368;6.730;2022-08-20T09:17:10;5.90;;;4.13;;
15614;SDS011;7907;51.368;6.730;2022-08-20T09:19:37;5.70;;;3.13;;
15614;SDS011;7907;51.368;6.730;2022-08-20T09:22:08;9.52;;;4.13;;
15614;SDS011;7907;51.368;6.730;2022-08-20T09:24:36;6.63;;;3.83;;
15614;SDS011;7907;51.368;6.730;2022-08-20T09:27:04;7.70;;;4.32;;
15614;SDS011;7907;51.368;6.730;2022-08-20T09:29:31;6.55;;;3.83;;
15614;SDS011;7907;51.368;6.730;2022-08-20T09:32:03;10.20;;;4.28;;
15614;SDS011;7907;51.368;6.730;2022-08-20T09:34:36;9.60;;;3.67;;
15614;SDS011;7907;51.368;6.730;2022-08-20T09:37:16;6.78;;;4.43;;
15614;SDS011;7907;51.368;6.730;2022-08-20T09:39:43;7.03;;;3.77;;
15614;SDS011;7907;51.368;6.730;2022-08-20T09:42:17;5.45;;;3.38;;
15614;SDS011;7907;51.368;6.730;2022-08-20T09:44:52;8.13;;;3.50;;
15614;SDS011;7907;51.368;6.730;2022-08-20T09:47:33;5.60;;;3.15;;
15614;SDS011;7907;51.368;6.730;2022-08-20T09:50:01;10.37;;;3.80;;
15614;SDS011;7907;51.368;6.730;2022-08-20T09:55:04;6.35;;;4.07;;
15614;SDS011;7907;51.368;6.730;2022-08-20T09:57:40;7.03;;;3.80;;
15614;SDS011;7907;51.368;6.730;2022-08-20T10:00:14;8.20;;;3.75;;
15614;SDS011;7907;51.368;6.730;2022-08-20T10:02:44;5.47;;;3.30;;
15614;SDS011;7907;51.368;6.730;2022-08-20T10:05:14;7.22;;;4.07;;
15614;SDS011;7907;51.368;6.730;2022-08-20T10:07:42;9.20;;;3.88;;
15614;SDS011;7907;51.368;6.730;2022-08-20T10:10:13;5.65;;;3.88;;
15614;SDS011;7907;51.368;6.730;2022-08-20T10:12:41;5.05;;;3.38;;
15614;SDS011;7907;51.368;6.730;2022-08-20T10:15:09;5.32;;;3.60;;
15614;SDS011;7907;51.368;6.730;2022-08-20T10:17:40;6.82;;;4.30;;
15614;SDS011;7907;51.368;6.730;2022-08-20T10:25:48;9.13;;;4.65;;
15614;SDS011;7907;51.368;6.730;2022-08-20T10:28:15;6.22;;;3.75;;
15614;SDS011;7907;51.368;6.730;2022-08-20T10:33:33;5.28;;;3.85;;
15614;SDS011;7907;51.368;6.730;2022-08-20T10:36:08;8.35;;;4.38;;
15614;SDS011;7907;51.368;6.730;2022-08-20T10:38:38;6.90;;;4.13;;
15614;SDS011;7907;51.368;6.730;2022-08-20T10:41:08;6.53;;;4.10;;
15614;SDS011;7907;51.368;6.730;2022-08-20T10:43:50;11.85;;;4.32;;
15614;SDS011;7907;51.368;6.730;2022-08-20T10:46:17;9.93;;;5.03;;
15614;SDS011;7907;51.368;6.730;2022-08-20T10:48:48;11.93;;;4.65;;
15614;SDS011;7907;51.368;6.730;2022-08-20T10:54:18;10.35;;;4.68;;
15614;SDS011;7907;51.368;6.730;2022-08-20T10:56:46;9.18;;;4.32;;
15614;SDS011;7907;51.368;6.730;2022-08-20T10:59:16;7.97;;;4.63;;
15614;SDS011;7907;51.368;6.730;2022-08-20T11:05:11;6.33;;;4.10;;
15614;SDS011;7907;51.368;6.730;2022-08-20T11:16:24;6.10;;;4.20;;
15614;SDS011;7907;51.368;6.730;2022-08-20T11:22:24;9.05;;;5.30;;
15614;SDS011;7907;51.368;6.730;2022-08-20T11:25:04;10.88;;;4.97;;
15614;SDS011;7907;51.368;6.730;2022-08-20T11:37:26;8.60;;;4.70;;
15614;SDS011;7907;51.368;6.730;2022-08-20T11:40:09;9.18;;;4.10;;
15614;SDS011;7907;51.368;6.730;2022-08-20T11:43:15;6.30;;;4.03;;
15614;SDS011;7907;51.368;6.730;2022-08-20T11:45:47;9.23;;;4.50;;
15614;SDS011;7907;51.368;6.730;2022-08-20T11:51:47;8.23;;;4.03;;
15614;SDS011;7907;51.368;6.730;2022-08-20T11:54:24;5.88;;;4.05;;
15614;SDS011;7907;51.368;6.730;2022-08-20T11:57:36;5.57;;;3.65;;
15614;SDS011;7907;51.368;6.730;2022-08-20T12:00:31;7.55;;;4.18;;
15614;SDS011;7907;51.368;6.730;2022-08-20T12:06:54;7.03;;;4.23;;
15614;SDS011;7907;51.368;6.730;2022-08-20T12:12:59;8.32;;;4.38;;
15614;SDS011;7907;51.368;6.730;2022-08-20T12:15:27;6.22;;;3.67;;
15614;SDS011;7907;51.368;6.730;2022-08-20T12:17:54;5.73;;;2.83;;
15614;SDS011;7907;51.368;6.730;2022-08-20T12:20:25;10.20;;;4.03;;
15614;SDS011;7907;51.368;6.730;2022-08-20T12:26:03;11.18;;;4.38;;
15614;SDS011;7907;51.368;6.730;2022-08-20T12:28:34;6.32;;;3.63;;
15614;SDS011;7907;51.368;6.730;2022-08-20T12:31:14;7.45;;;2.97;;
15614;SDS011;7907;51.368;6.730;2022-08-20T12:33:50;6.83;;;2.93;;
15614;SDS011;7907;51.368;6.730;2022-08-20T12:36:19;4.32;;;2.97;;
15614;SDS011;7907;51.368;6.730;2022-08-20T12:38:50;4.80;;;3.53;;
15614;SDS011;7907;51.368;6.730;2022-08-20T12:41:38;8.10;;;3.05;;
15614;SDS011;7907;51.368;6.730;2022-08-20T12:44:10;6.28;;;2.72;;
15614;SDS011;7907;51.368;6.730;2022-08-20T12:46:38;4.68;;;3.05;;
15614;SDS011;7907;51.368;6.730;2022-08-20T12:49:25;3.72;;;2.85;;
15614;SDS011;7907;51.368;6.730;2022-08-20T12:52:02;4.40;;;3.35;;
15614;SDS011;7907;51.368;6.730;2022-08-20T12:54:30;5.55;;;3.13;;
15614;SDS011;7907;51.368;6.730;2022-08-20T12:57:12;3.72;;;2.70;;
15614;SDS011;7907;51.368;6.730;2022-08-20T13:02:36;7.68;;;3.05;;
15614;SDS011;7907;51.368;6.730;2022-08-20T13:05:05;5.07;;;2.40;;
15614;SDS011;7907;51.368;6.730;2022-08-20T13:10:51;5.78;;;3.00;;
15614;SDS011;7907;51.368;6.730;2022-08-20T13:13:18;4.93;;;2.92;;
15614;SDS011;7907;51.368;6.730;2022-08-20T13:15:46;4.22;;;2.83;;
15614;SDS011;7907;51.368;6.730;2022-08-20T13:18:14;4.68;;;2.40;;
15614;SDS011;7907;51.368;6.730;2022-08-20T13:20:42;5.27;;;2.90;;
15614;SDS011;7907;51.368;6.730;2022-08-20T13:23:09;4.78;;;2.38;;
15614;SDS011;7907;51.368;6.730;2022-08-20T13:25:36;9.50;;;3.08;;
15614;SDS011;7907;51.368;6.730;2022-08-20T13:28:22;5.18;;;2.92;;
15614;SDS011;7907;51.368;6.730;2022-08-20T13:30:59;6.28;;;3.08;;
15614;SDS011;7907;51.368;6.730;2022-08-20T13:33:30;4.57;;;2.78;;
15614;SDS011;7907;51.368;6.730;2022-08-20T13:36:23;2.50;;;1.85;;
15614;SDS011;7907;51.368;6.730;2022-08-20T13:38:50;9.88;;;2.80;;
15614;SDS011;7907;51.368;6.730;2022-08-20T13:44:15;4.07;;;2.27;;
15614;SDS011;7907;51.368;6.730;2022-08-20T13:46:44;4.35;;;2.50;;
15614;SDS011;7907;51.368;6.730;2022-08-20T13:49:24;7.40;;;2.63;;
15614;SDS011;7907;51.368;6.730;2022-08-20T13:55:09;5.80;;;2.08;;
15614;SDS011;7907;51.368;6.730;2022-08-20T14:01:10;5.68;;;3.25;;
15614;SDS011;7907;51.368;6.730;2022-08-20T14:06:27;3.75;;;2.25;;
15614;SDS011;7907;51.368;6.730;2022-08-20T14:08:55;2.97;;;2.00;;
15614;SDS011;7907;51.368;6.730;2022-08-20T14:11:25;3.05;;;2.30;;
15614;SDS011;7907;51.368;6.730;2022-08-20T14:13:57;3.38;;;1.52;;
15614;SDS011;7907;51.368;6.730;2022-08-20T14:16:34;5.20;;;1.92;;
15614;SDS011;7907;51.368;6.730;2022-08-20T14:19:05;4.32;;;2.08;;
15614;SDS011;7907;51.368;6.730;2022-08-20T14:21:35;5.60;;;1.90;;
15614;SDS011;7907;51.368;6.730;2022-08-20T14:24:05;5.90;;;2.00;;
15614;SDS011;7907;51.368;6.730;2022-08-20T14:30:28;3.35;;;2.08;;
15614;SDS011;7907;51.368;6.730;2022-08-20T14:39:49;3.28;;;2.17;;
15614;SDS011;7907;51.368;6.730;2022-08-20T15:04:49;2.05;;;1.10;;
15614;SDS011;7907;51.368;6.730;2022-08-20T15:17:42;4.25;;;2.55;;
15614;SDS011;7907;51.368;6.730;2022-08-20T15:20:36;1.00;;;0.77;;
15614;SDS011;7907;51.368;6.730;2022-08-20T15:26:41;3.90;;;1.77;;
15614;SDS011;7907;51.368;6.730;2022-08-20T15:29:12;6.00;;;1.63;;
15614;SDS011;7907;51.368;6.730;2022-08-20T15:31:56;3.87;;;1.90;;
15614;SDS011;7907;51.368;6.730;2022-08-20T15:41:11;2.15;;;0.95;;
15614;SDS011;7907;51.368;6.730;2022-08-20T15:43:38;1.33;;;1.17;;
15614;SDS011;7907;51.368;6.730;2022-08-20T15:46:05;3.10;;;1.05;;
15614;SDS011;7907;51.368;6.730;2022-08-20T15:48:33;3.38;;;1.65;;
15614;SDS011;7907;51.368;6.730;2022-08-20T15:51:09;6.15;;;2.60;;
15614;SDS011;7907;51.368;6.730;2022-08-20T15:53:52;3.03;;;2.53;;
15614;SDS011;7907;51.368;6.730;2022-08-20T15:56:30;0.93;;;0.88;;
15614;SDS011;7907;51.368;6.730;2022-08-20T15:59:15;3.65;;;1.10;;
15614;SDS011;7907;51.368;6.730;2022-08-20T16:01:51;1.42;;;0.98;;
15614;SDS011;7907;51.368;6.730;2022-08-20T16:04:32;3.38;;;1.10;;
15614;SDS011;7907;51.368;6.730;2022-08-20T16:07:42;4.57;;;2.60;;
15614;SDS011;7907;51.368;6.730;2022-08-20T16:10:16;3.95;;;1.98;;
15614;SDS011;7907;51.368;6.730;2022-08-20T16:12:49;2.05;;;0.85;;
15614;SDS011;7907;51.368;6.730;2022-08-20T16:15:21;1.35;;;0.80;;
15614;SDS011;7907;51.368;6.730;2022-08-20T16:20:46;7.75;;;4.28;;
15614;SDS011;7907;51.368;6.730;2022-08-20T16:23:17;5.53;;;2.08;;
15614;SDS011;7907;51.368;6.730;2022-08-20T16:25:48;5.10;;;1.50;;
15614;SDS011;7907;51.368;6.730;2022-08-20T16:28:26;4.40;;;1.77;;
15614;SDS011;7907;51.368;6.730;2022-08-20T16:30:59;7.93;;;2.92;;
15614;SDS011;7907;51.368;6.730;2022-08-20T16:33:30;4.93;;;2.55;;
15614;SDS011;7907;51.368;6.730;2022-08-20T16:36:05;1.85;;;1.35;;
15614;SDS011;7907;51.368;6.730;2022-08-20T16:38:37;2.43;;;1.70;;
15614;SDS011;7907;51.368;6.730;2022-08-20T16:41:10;2.30;;;1.93;;
15614;SDS011;7907;51.368;6.730;2022-08-20T16:43:42;3.08;;;1.92;;
15614;SDS011;7907;51.368;6.730;2022-08-20T16:46:14;1.53;;;1.20;;
15614;SDS011;7907;51.368;6.730;2022-08-20T16:48:43;5.82;;;2.38;;
15614;SDS011;7907;51.368;6.730;2022-08-20T16:51:17;7.30;;;2.67;;
15614;SDS011;7907;51.368;6.730;2022-08-20T16:53:57;5.25;;;2.67;;
15614;SDS011;7907;51.368;6.730;2022-08-20T16:56:31;5.33;;;2.20;;
15614;SDS011;7907;51.368;6.730;2022-08-20T16:59:02;4.72;;;2.72;;
15614;SDS011;7907;51.368;6.730;2022-08-20T17:01:30;5.65;;;2.50;;
15614;SDS011;7907;51.368;6.730;2022-08-20T17:03:59;2.70;;;1.92;;
15614;SDS011;7907;51.368;6.730;2022-08-20T17:06:27;5.13;;;2.78;;
15614;SDS011;7907;51.368;6.730;2022-08-20T17:08:58;4.88;;;1.83;;
15614;SDS011;7907;51.368;6.730;2022-08-20T17:11:30;2.15;;;1.55;;
15614;SDS011;7907;51.368;6.730;2022-08-20T17:14:03;5.18;;;2.85;;
15614;SDS011;7907;51.368;6.730;2022-08-20T17:16:33;8.57;;;3.15;;
15614;SDS011;7907;51.368;6.730;2022-08-20T17:21:44;4.67;;;1.17;;
15614;SDS011;7907;51.368;6.730;2022-08-20T17:24:16;4.45;;;2.15;;
15614;SDS011;7907;51.368;6.730;2022-08-20T17:26:48;7.07;;;2.30;;
15614;SDS011;7907;51.368;6.730;2022-08-20T17:29:23;4.53;;;2.58;;
15614;SDS011;7907;51.368;6.730;2022-08-20T17:31:53;5.72;;;2.65;;
15614;SDS011;7907;51.368;6.730;2022-08-20T17:34:23;3.55;;;1.63;;
15614;SDS011;7907;51.368;6.730;2022-08-20T17:36:53;5.13;;;2.42;;
15614;SDS011;7907;51.368;6.730;2022-08-20T17:39:23;5.75;;;1.77;;
15614;SDS011;7907;51.368;6.730;2022-08-20T17:41:53;5.72;;;1.83;;
15614;SDS011;7907;51.368;6.730;2022-08-20T17:44:30;5.93;;;1.83;;
15614;SDS011;7907;51.368;6.730;2022-08-20T17:47:00;2.05;;;1.42;;
15614;SDS011;7907;51.368;6.730;2022-08-20T17:49:32;4.20;;;2.03;;
15614;SDS011;7907;51.368;6.730;2022-08-20T17:52:03;3.93;;;1.53;;
15614;SDS011;7907;51.368;6.730;2022-08-20T17:54:36;6.95;;;1.65;;
15614;SDS011;7907;51.368;6.730;2022-08-20T17:57:11;5.18;;;2.00;;
15614;SDS011;7907;51.368;6.730;2022-08-20T17:59:44;6.57;;;2.92;;
15614;SDS011;7907;51.368;6.730;2022-08-20T18:02:16;5.35;;;1.85;;
15614;SDS011;7907;51.368;6.730;2022-08-20T18:11:04;1.70;;;1.55;;
15614;SDS011;7907;51.368;6.730;2022-08-20T18:13:50;6.93;;;2.00;;
15614;SDS011;7907;51.368;6.730;2022-08-20T18:16:43;5.00;;;1.88;;
15614;SDS011;7907;51.368;6.730;2022-08-20T18:19:26;3.45;;;2.00;;
15614;SDS011;7907;51.368;6.730;2022-08-20T18:22:05;5.38;;;2.42;;
15614;SDS011;7907;51.368;6.730;2022-08-20T18:24:39;6.07;;;2.08;;
15614;SDS011;7907;51.368;6.730;2022-08-20T18:27:11;3.67;;;1.67;;
15614;SDS011;7907;51.368;6.730;2022-08-20T18:29:43;2.97;;;2.20;;
15614;SDS011;7907;51.368;6.730;2022-08-20T18:32:23;2.92;;;1.63;;
15614;SDS011;7907;51.368;6.730;2022-08-20T18:35:05;8.98;;;2.15;;
15614;SDS011;7907;51.368;6.730;2022-08-20T18:37:38;3.13;;;1.50;;
15614;SDS011;7907;51.368;6.730;2022-08-20T18:40:07;3.30;;;1.50;;
15614;SDS011;7907;51.368;6.730;2022-08-20T18:42:40;5.70;;;1.70;;
15614;SDS011;7907;51.368;6.730;2022-08-20T18:45:08;2.50;;;1.58;;
15614;SDS011;7907;51.368;6.730;2022-08-20T18:47:41;5.90;;;2.50;;
15614;SDS011;7907;51.368;6.730;2022-08-20T18:50:19;3.70;;;1.85;;
15614;SDS011;7907;51.368;6.730;2022-08-20T18:53:04;5.80;;;1.90;;
15614;SDS011;7907;51.368;6.730;2022-08-20T18:55:38;7.72;;;1.90;;
15614;SDS011;7907;51.368;6.730;2022-08-20T18:58:09;8.38;;;4.28;;
15614;SDS011;7907;51.368;6.730;2022-08-20T19:00:39;6.03;;;2.10;;
15614;SDS011;7907;51.368;6.730;2022-08-20T19:03:13;2.70;;;2.08;;
15614;SDS011;7907;51.368;6.730;2022-08-20T19:06:01;5.60;;;2.20;;
15614;SDS011;7907;51.368;6.730;2022-08-20T19:08:41;4.95;;;2.47;;
15614;SDS011;7907;51.368;6.730;2022-08-20T19:11:22;3.00;;;1.70;;
15614;SDS011;7907;51.368;6.730;2022-08-20T19:17:03;3.03;;;1.65;;
15614;SDS011;7907;51.368;6.730;2022-08-20T19:19:36;2.80;;;1.63;;
15614;SDS011;7907;51.368;6.730;2022-08-20T19:22:04;6.05;;;1.83;;
15614;SDS011;7907;51.368;6.730;2022-08-20T19:24:33;3.55;;;1.42;;
15614;SDS011;7907;51.368;6.730;2022-08-20T19:27:02;1.58;;;1.10;;
15614;SDS011;7907;51.368;6.730;2022-08-20T19:29:34;3.97;;;1.38;;
15614;SDS011;7907;51.368;6.730;2022-08-20T19:32:15;3.15;;;1.38;;
15614;SDS011;7907;51.368;6.730;2022-08-20T19:34:50;2.63;;;1.55;;
15614;SDS011;7907;51.368;6.730;2022-08-20T19:37:19;2.42;;;1.75;;
15614;SDS011;7907;51.368;6.730;2022-08-20T19:40:02;2.97;;;1.23;;
15614;SDS011;7907;51.368;6.730;2022-08-20T19:42:59;3.25;;;1.27;;
15614;SDS011;7907;51.368;6.730;2022-08-20T19:45:37;2.17;;;1.52;;
15614;SDS011;7907;51.368;6.730;2022-08-20T20:11:27;3.47;;;1.45;;
15614;SDS011;7907;51.368;6.730;2022-08-20T20:19:00;2.22;;;2.03;;
15614;SDS011;7907;51.368;6.730;2022-08-20T20:25:18;5.10;;;1.90;;
15614;SDS011;7907;51.368;6.730;2022-08-20T20:42:28;4.65;;;1.85;;
15614;SDS011;7907;51.368;6.730;2022-08-20T20:46:56;3.22;;;1.60;;
15614;SDS011;7907;51.368;6.730;2022-08-20T20:48:49;2.97;;;1.48;;
15614;SDS011;7907;51.368;6.730;2022-08-20T20:55:10;4.00;;;1.90;;
15614;SDS011;7907;51.368;6.730;2022-08-20T20:57:51;1.27;;;1.17;;
15614;SDS011;7907;51.368;6.730;2022-08-20T21:03:57;2.30;;;1.70;;
15614;SDS011;7907;51.368;6.730;2022-08-20T21:56:58;3.88;;;1.40;;
15614;SDS011;7907;51.368;6.730;2022-08-20T21:59:46;2.53;;;1.60;;
15614;SDS011;7907;51.368;6.730;2022-08-20T22:02:35;1.73;;;1.60;;
15614;SDS011;7907;51.368;6.730;2022-08-20T22:09:18;1.38;;;1.27;;
15614;SDS011;7907;51.368;6.730;2022-08-20T22:11:50;1.20;;;1.10;;
15614;SDS011;7907;51.368;6.730;2022-08-20T22:14:21;1.67;;;1.45;;
15614;SDS011;7907;51.368;6.730;2022-08-20T22:16:52;1.57;;;1.47;;
15614;SDS011;7907;51.368;6.730;2022-08-20T22:19:31;4.63;;;1.30;;
15614;SDS011;7907;51.368;6.730;2022-08-20T22:22:11;2.53;;;1.63;;
15614;SDS011;7907;51.368;6.730;2022-08-20T22:24:42;1.35;;;1.23;;
15614;SDS011;7907;51.368;6.730;2022-08-20T22:27:13;4.68;;;1.52;;
15614;SDS011;7907;51.368;6.730;2022-08-20T22:29:47;2.90;;;1.73;;
15614;SDS011;7907;51.368;6.730;2022-08-20T22:32:19;2.67;;;1.83;;
15614;SDS011;7907;51.368;6.730;2022-08-20T22:34:52;2.30;;;1.38;;
15614;SDS011;7907;51.368;6.730;2022-08-20T22:37:22;7.90;;;1.80;;
15614;SDS011;7907;51.368;6.730;2022-08-20T22:39:57;2.08;;;1.63;;
15614;SDS011;7907;51.368;6.730;2022-08-20T22:42:29;6.28;;;2.42;;
15614;SDS011;7907;51.368;6.730;2022-08-20T22:44:58;1.38;;;1.23;;
15614;SDS011;7907;51.368;6.730;2022-08-20T22:47:31;2.33;;;1.63;;
15614;SDS011;7907;51.368;6.730;2022-08-20T22:50:10;2.00;;;1.33;;
15614;SDS011;7907;51.368;6.730;2022-08-20T22:53:04;1.10;;;1.00;;
15614;SDS011;7907;51.368;6.730;2022-08-20T23:01:44;2.10;;;1.60;;
15614;SDS011;7907;51.368;6.730;2022-08-20T23:04:16;3.38;;;1.58;;
15614;SDS011;7907;51.368;6.730;2022-08-20T23:06:55;2.00;;;1.50;;
15614;SDS011;7907;51.368;6.730;2022-08-20T23:09:27;2.28;;;1.67;;
15614;SDS011;7907;51.368;6.730;2022-08-20T23:11:57;2.90;;;1.43;;
15614;SDS011;7907;51.368;6.730;2022-08-20T23:14:29;4.07;;;2.13;;
15614;SDS011;7907;51.368;6.730;2022-08-20T23:16:57;2.03;;;1.33;;
15614;SDS011;7907;51.368;6.730;2022-08-20T23:19:26;2.30;;;1.73;;
15614;SDS011;7907;51.368;6.730;2022-08-20T23:22:03;2.20;;;1.30;;